sensor_id;sensor_type;location;lat;lon;timestamp;P1;durP1;ratioP1;P2;durP2;ratioP2
80297;SDS011;69599;52.622;9.230;2023-05-02T00:00:40;5.78;;;3.42;;
80297;SDS011;69599;52.622;9.230;2023-05-02T00:03:06;5.28;;;3.38;;
80297;SDS011;69599;52.622;9.230;2023-05-02T00:05:32;6.65;;;3.30;;
80297;SDS011;69599;52.622;9.230;2023-05-02T00:07:58;6.85;;;3.75;;
80297;SDS011;69599;52.622;9.230;2023-05-02T00:10:23;7.15;;;3.45;;
80297;SDS011;69599;52.622;9.230;2023-05-02T00:12:49;7.97;;;4.00;;
80297;SDS011;69599;52.622;9.230;2023-05-02T00:15:14;7.32;;;4.30;;
80297;SDS011;69599;52.622;9.230;2023-05-02T00:17:40;7.07;;;3.75;;
80297;SDS011;69599;52.622;9.230;2023-05-02T00:20:07;8.38;;;3.40;;
80297;SDS011;69599;52.622;9.230;2023-05-02T00:22:33;7.35;;;3.90;;
80297;SDS011;69599;52.622;9.230;2023-05-02T00:24:59;7.47;;;4.43;;
80297;SDS011;69599;52.622;9.230;2023-05-02T00:27:25;7.15;;;4.15;;
80297;SDS011;69599;52.622;9.230;2023-05-02T00:29:50;9.95;;;5.45;;
80297;SDS011;69599;52.622;9.230;2023-05-02T00:32:16;9.20;;;5.13;;
80297;SDS011;69599;52.622;9.230;2023-05-02T00:34:42;10.05;;;5.53;;
80297;SDS011;69599;52.622;9.230;2023-05-02T00:37:08;10.80;;;5.60;;
80297;SDS011;69599;52.622;9.230;2023-05-02T00:39:33;11.52;;;6.85;;
80297;SDS011;69599;52.622;9.230;2023-05-02T00:41:59;12.20;;;6.22;;
80297;SDS011;69599;52.622;9.230;2023-05-02T00:44:25;9.15;;;6.03;;
80297;SDS011;69599;52.622;9.230;2023-05-02T00:46:51;10.43;;;5.78;;
80297;SDS011;69599;52.622;9.230;2023-05-02T00:49:17;14.15;;;6.70;;
80297;SDS011;69599;52.622;9.230;2023-05-02T00:51:43;11.45;;;6.78;;
80297;SDS011;69599;52.622;9.230;2023-05-02T00:54:08;12.80;;;6.80;;
80297;SDS011;69599;52.622;9.230;2023-05-02T00:56:34;14.30;;;7.90;;
80297;SDS011;69599;52.622;9.230;2023-05-02T00:59:00;12.85;;;7.25;;
80297;SDS011;69599;52.622;9.230;2023-05-02T01:01:39;11.55;;;6.75;;
80297;SDS011;69599;52.622;9.230;2023-05-02T01:06:59;16.92;;;8.35;;
80297;SDS011;69599;52.622;9.230;2023-05-02T01:12:26;14.60;;;8.77;;
80297;SDS011;69599;52.622;9.230;2023-05-02T01:14:53;16.63;;;9.57;;
80297;SDS011;69599;52.622;9.230;2023-05-02T01:17:23;16.17;;;10.05;;
80297;SDS011;69599;52.622;9.230;2023-05-02T01:19:51;20.88;;;10.95;;
80297;SDS011;69599;52.622;9.230;2023-05-02T01:22:22;18.08;;;10.32;;
80297;SDS011;69599;52.622;9.230;2023-05-02T01:27:33;20.02;;;10.25;;
80297;SDS011;69599;52.622;9.230;2023-05-02T01:30:05;19.15;;;11.73;;
80297;SDS011;69599;52.622;9.230;2023-05-02T01:32:32;20.27;;;11.02;;
80297;SDS011;69599;52.622;9.230;2023-05-02T01:34:59;17.60;;;10.50;;
80297;SDS011;69599;52.622;9.230;2023-05-02T01:37:26;17.27;;;10.02;;
80297;SDS011;69599;52.622;9.230;2023-05-02T01:39:53;17.10;;;10.10;;
80297;SDS011;69599;52.622;9.230;2023-05-02T01:42:20;17.25;;;9.32;;
80297;SDS011;69599;52.622;9.230;2023-05-02T01:44:46;17.38;;;9.85;;
80297;SDS011;69599;52.622;9.230;2023-05-02T01:47:12;17.80;;;10.68;;
80297;SDS011;69599;52.622;9.230;2023-05-02T01:49:39;23.48;;;11.77;;
80297;SDS011;69599;52.622;9.230;2023-05-02T01:52:06;16.83;;;10.82;;
80297;SDS011;69599;52.622;9.230;2023-05-02T01:54:35;16.95;;;10.80;;
80297;SDS011;69599;52.622;9.230;2023-05-02T01:57:01;22.35;;;11.93;;
80297;SDS011;69599;52.622;9.230;2023-05-02T01:59:29;21.92;;;11.85;;
80297;SDS011;69599;52.622;9.230;2023-05-02T02:01:55;19.20;;;11.27;;
80297;SDS011;69599;52.622;9.230;2023-05-02T02:04:21;24.13;;;12.32;;
80297;SDS011;69599;52.622;9.230;2023-05-02T02:06:49;20.27;;;11.82;;
80297;SDS011;69599;52.622;9.230;2023-05-02T02:09:18;22.85;;;12.48;;
80297;SDS011;69599;52.622;9.230;2023-05-02T02:11:49;24.23;;;13.32;;
80297;SDS011;69599;52.622;9.230;2023-05-02T02:14:21;24.05;;;13.90;;
80297;SDS011;69599;52.622;9.230;2023-05-02T02:16:50;21.38;;;12.68;;
80297;SDS011;69599;52.622;9.230;2023-05-02T02:19:20;25.10;;;12.80;;
80297;SDS011;69599;52.622;9.230;2023-05-02T02:21:46;20.02;;;12.25;;
80297;SDS011;69599;52.622;9.230;2023-05-02T02:24:12;24.02;;;13.15;;
80297;SDS011;69599;52.622;9.230;2023-05-02T02:26:38;21.45;;;13.25;;
80297;SDS011;69599;52.622;9.230;2023-05-02T02:29:03;22.38;;;11.45;;
80297;SDS011;69599;52.622;9.230;2023-05-02T02:31:32;22.02;;;11.75;;
80297;SDS011;69599;52.622;9.230;2023-05-02T02:33:59;22.55;;;12.07;;
80297;SDS011;69599;52.622;9.230;2023-05-02T02:39:01;22.05;;;11.88;;
80297;SDS011;69599;52.622;9.230;2023-05-02T02:41:39;23.67;;;12.45;;
80297;SDS011;69599;52.622;9.230;2023-05-02T02:47:10;22.98;;;11.48;;
80297;SDS011;69599;52.622;9.230;2023-05-02T02:49:48;24.02;;;12.05;;
80297;SDS011;69599;52.622;9.230;2023-05-02T02:52:20;22.77;;;12.02;;
80297;SDS011;69599;52.622;9.230;2023-05-02T02:55:06;23.25;;;11.15;;
80297;SDS011;69599;52.622;9.230;2023-05-02T02:57:36;21.50;;;11.52;;
80297;SDS011;69599;52.622;9.230;2023-05-02T03:00:24;21.60;;;10.95;;
80297;SDS011;69599;52.622;9.230;2023-05-02T03:02:50;19.42;;;10.25;;
80297;SDS011;69599;52.622;9.230;2023-05-02T03:05:17;21.00;;;11.52;;
80297;SDS011;69599;52.622;9.230;2023-05-02T03:07:43;21.42;;;12.10;;
80297;SDS011;69599;52.622;9.230;2023-05-02T03:10:09;21.25;;;11.00;;
80297;SDS011;69599;52.622;9.230;2023-05-02T03:12:35;23.48;;;11.85;;
80297;SDS011;69599;52.622;9.230;2023-05-02T03:17:57;27.23;;;13.00;;
80297;SDS011;69599;52.622;9.230;2023-05-02T03:20:23;24.63;;;11.65;;
80297;SDS011;69599;52.622;9.230;2023-05-02T03:22:48;26.05;;;12.90;;
80297;SDS011;69599;52.622;9.230;2023-05-02T03:25:13;24.23;;;12.10;;
80297;SDS011;69599;52.622;9.230;2023-05-02T03:27:39;26.38;;;13.65;;
80297;SDS011;69599;52.622;9.230;2023-05-02T03:30:05;27.35;;;13.40;;
80297;SDS011;69599;52.622;9.230;2023-05-02T03:32:31;28.25;;;13.48;;
80297;SDS011;69599;52.622;9.230;2023-05-02T03:34:57;27.17;;;12.98;;
80297;SDS011;69599;52.622;9.230;2023-05-02T03:37:23;25.50;;;12.50;;
80297;SDS011;69599;52.622;9.230;2023-05-02T03:39:49;24.88;;;12.35;;
80297;SDS011;69599;52.622;9.230;2023-05-02T03:42:14;21.80;;;10.05;;
80297;SDS011;69599;52.622;9.230;2023-05-02T03:44:39;25.92;;;11.90;;
80297;SDS011;69599;52.622;9.230;2023-05-02T03:47:05;21.17;;;10.15;;
80297;SDS011;69599;52.622;9.230;2023-05-02T03:49:33;16.52;;;8.77;;
80297;SDS011;69599;52.622;9.230;2023-05-02T03:51:58;19.35;;;8.60;;
80297;SDS011;69599;52.622;9.230;2023-05-02T03:54:24;15.23;;;8.07;;
80297;SDS011;69599;52.622;9.230;2023-05-02T03:56:52;13.88;;;7.13;;
80297;SDS011;69599;52.622;9.230;2023-05-02T03:59:20;14.77;;;7.20;;
80297;SDS011;69599;52.622;9.230;2023-05-02T04:01:48;11.00;;;5.68;;
80297;SDS011;69599;52.622;9.230;2023-05-02T04:04:14;9.57;;;5.30;;
80297;SDS011;69599;52.622;9.230;2023-05-02T04:06:40;11.32;;;5.90;;
80297;SDS011;69599;52.622;9.230;2023-05-02T04:09:05;7.75;;;5.50;;
80297;SDS011;69599;52.622;9.230;2023-05-02T04:11:31;7.82;;;4.85;;
80297;SDS011;69599;52.622;9.230;2023-05-02T04:13:57;5.18;;;2.88;;
80297;SDS011;69599;52.622;9.230;2023-05-02T04:16:22;4.30;;;2.42;;
80297;SDS011;69599;52.622;9.230;2023-05-02T04:18:47;4.30;;;1.95;;
80297;SDS011;69599;52.622;9.230;2023-05-02T04:21:13;4.13;;;2.38;;
80297;SDS011;69599;52.622;9.230;2023-05-02T04:23:38;5.63;;;2.88;;
80297;SDS011;69599;52.622;9.230;2023-05-02T04:26:04;7.00;;;2.85;;
80297;SDS011;69599;52.622;9.230;2023-05-02T04:28:30;6.85;;;2.50;;
80297;SDS011;69599;52.622;9.230;2023-05-02T04:30:55;7.22;;;2.47;;
80297;SDS011;69599;52.622;9.230;2023-05-02T04:33:21;6.18;;;2.53;;
80297;SDS011;69599;52.622;9.230;2023-05-02T04:35:48;6.00;;;3.03;;
80297;SDS011;69599;52.622;9.230;2023-05-02T04:38:13;9.07;;;3.00;;
80297;SDS011;69599;52.622;9.230;2023-05-02T04:40:39;6.90;;;2.80;;
80297;SDS011;69599;52.622;9.230;2023-05-02T04:43:04;5.90;;;2.95;;
80297;SDS011;69599;52.622;9.230;2023-05-02T04:45:30;7.55;;;2.97;;
80297;SDS011;69599;52.622;9.230;2023-05-02T04:47:56;6.75;;;2.60;;
80297;SDS011;69599;52.622;9.230;2023-05-02T04:50:21;10.85;;;2.85;;
80297;SDS011;69599;52.622;9.230;2023-05-02T04:52:47;8.25;;;3.60;;
80297;SDS011;69599;52.622;9.230;2023-05-02T04:55:12;11.90;;;3.55;;
80297;SDS011;69599;52.622;9.230;2023-05-02T04:57:38;11.20;;;3.85;;
80297;SDS011;69599;52.622;9.230;2023-05-02T05:00:04;18.27;;;4.60;;
80297;SDS011;69599;52.622;9.230;2023-05-02T05:02:30;18.42;;;4.80;;
80297;SDS011;69599;52.622;9.230;2023-05-02T05:04:55;11.52;;;3.80;;
80297;SDS011;69599;52.622;9.230;2023-05-02T05:07:21;12.45;;;3.67;;
80297;SDS011;69599;52.622;9.230;2023-05-02T05:09:46;11.77;;;3.50;;
80297;SDS011;69599;52.622;9.230;2023-05-02T05:12:11;11.38;;;3.58;;
80297;SDS011;69599;52.622;9.230;2023-05-02T05:14:37;14.75;;;3.75;;
80297;SDS011;69599;52.622;9.230;2023-05-02T05:17:02;13.55;;;3.92;;
80297;SDS011;69599;52.622;9.230;2023-05-02T05:19:28;11.65;;;3.47;;
80297;SDS011;69599;52.622;9.230;2023-05-02T05:21:53;14.88;;;3.60;;
80297;SDS011;69599;52.622;9.230;2023-05-02T05:24:18;13.43;;;3.53;;
80297;SDS011;69599;52.622;9.230;2023-05-02T05:26:44;9.63;;;3.40;;
80297;SDS011;69599;52.622;9.230;2023-05-02T05:29:09;10.23;;;3.35;;
80297;SDS011;69599;52.622;9.230;2023-05-02T05:31:35;10.35;;;4.10;;
80297;SDS011;69599;52.622;9.230;2023-05-02T05:34:00;13.75;;;3.25;;
80297;SDS011;69599;52.622;9.230;2023-05-02T05:36:27;13.68;;;3.50;;
80297;SDS011;69599;52.622;9.230;2023-05-02T05:38:52;10.02;;;2.97;;
80297;SDS011;69599;52.622;9.230;2023-05-02T05:41:17;12.15;;;3.50;;
80297;SDS011;69599;52.622;9.230;2023-05-02T05:43:43;10.20;;;3.20;;
80297;SDS011;69599;52.622;9.230;2023-05-02T05:46:08;12.63;;;2.97;;
80297;SDS011;69599;52.622;9.230;2023-05-02T05:48:34;11.77;;;4.18;;
80297;SDS011;69599;52.622;9.230;2023-05-02T05:51:03;11.75;;;3.05;;
80297;SDS011;69599;52.622;9.230;2023-05-02T05:53:29;11.68;;;3.85;;
80297;SDS011;69599;52.622;9.230;2023-05-02T05:55:54;13.82;;;3.30;;
80297;SDS011;69599;52.622;9.230;2023-05-02T05:58:20;20.55;;;4.97;;
80297;SDS011;69599;52.622;9.230;2023-05-02T06:00:45;12.02;;;3.30;;
80297;SDS011;69599;52.622;9.230;2023-05-02T06:03:11;12.48;;;3.45;;
80297;SDS011;69599;52.622;9.230;2023-05-02T06:05:36;10.82;;;3.33;;
80297;SDS011;69599;52.622;9.230;2023-05-02T06:08:02;14.98;;;4.43;;
80297;SDS011;69599;52.622;9.230;2023-05-02T06:10:27;14.73;;;3.50;;
80297;SDS011;69599;52.622;9.230;2023-05-02T06:12:52;10.43;;;3.13;;
80297;SDS011;69599;52.622;9.230;2023-05-02T06:15:18;12.98;;;3.40;;
80297;SDS011;69599;52.622;9.230;2023-05-02T06:17:43;13.30;;;2.95;;
80297;SDS011;69599;52.622;9.230;2023-05-02T06:20:09;17.67;;;3.30;;
80297;SDS011;69599;52.622;9.230;2023-05-02T06:22:35;11.18;;;3.05;;
80297;SDS011;69599;52.622;9.230;2023-05-02T06:25:00;13.75;;;3.40;;
80297;SDS011;69599;52.622;9.230;2023-05-02T06:27:26;20.42;;;3.63;;
80297;SDS011;69599;52.622;9.230;2023-05-02T06:29:52;10.18;;;2.90;;
80297;SDS011;69599;52.622;9.230;2023-05-02T06:32:17;14.05;;;3.83;;
80297;SDS011;69599;52.622;9.230;2023-05-02T06:34:43;11.68;;;3.42;;
80297;SDS011;69599;52.622;9.230;2023-05-02T06:37:08;16.13;;;4.05;;
80297;SDS011;69599;52.622;9.230;2023-05-02T06:39:34;13.27;;;3.83;;
80297;SDS011;69599;52.622;9.230;2023-05-02T06:41:59;15.95;;;3.30;;
80297;SDS011;69599;52.622;9.230;2023-05-02T06:44:25;10.75;;;2.70;;
80297;SDS011;69599;52.622;9.230;2023-05-02T06:46:50;9.45;;;3.83;;
80297;SDS011;69599;52.622;9.230;2023-05-02T06:49:16;11.50;;;3.08;;
80297;SDS011;69599;52.622;9.230;2023-05-02T06:51:41;8.95;;;2.80;;
80297;SDS011;69599;52.622;9.230;2023-05-02T06:54:07;11.07;;;2.72;;
80297;SDS011;69599;52.622;9.230;2023-05-02T06:56:32;13.05;;;3.45;;
80297;SDS011;69599;52.622;9.230;2023-05-02T06:58:58;15.38;;;3.40;;
80297;SDS011;69599;52.622;9.230;2023-05-02T07:01:24;13.30;;;3.25;;
80297;SDS011;69599;52.622;9.230;2023-05-02T07:03:49;9.38;;;2.47;;
80297;SDS011;69599;52.622;9.230;2023-05-02T07:06:15;9.45;;;2.95;;
80297;SDS011;69599;52.622;9.230;2023-05-02T07:08:40;9.68;;;2.60;;
80297;SDS011;69599;52.622;9.230;2023-05-02T07:11:05;12.35;;;3.38;;
80297;SDS011;69599;52.622;9.230;2023-05-02T07:13:31;12.40;;;2.85;;
80297;SDS011;69599;52.622;9.230;2023-05-02T07:15:56;10.02;;;2.90;;
80297;SDS011;69599;52.622;9.230;2023-05-02T07:18:22;8.55;;;2.40;;
80297;SDS011;69599;52.622;9.230;2023-05-02T07:20:47;6.25;;;1.95;;
80297;SDS011;69599;52.622;9.230;2023-05-02T07:23:13;8.00;;;2.42;;
80297;SDS011;69599;52.622;9.230;2023-05-02T07:25:39;7.22;;;2.05;;
80297;SDS011;69599;52.622;9.230;2023-05-02T07:28:04;8.93;;;1.90;;
80297;SDS011;69599;52.622;9.230;2023-05-02T07:30:30;14.43;;;2.65;;
80297;SDS011;69599;52.622;9.230;2023-05-02T07:32:55;11.35;;;2.67;;
80297;SDS011;69599;52.622;9.230;2023-05-02T07:35:21;10.50;;;3.10;;
80297;SDS011;69599;52.622;9.230;2023-05-02T07:37:46;11.75;;;3.05;;
80297;SDS011;69599;52.622;9.230;2023-05-02T07:40:12;12.52;;;3.10;;
80297;SDS011;69599;52.622;9.230;2023-05-02T07:42:37;8.30;;;2.80;;
80297;SDS011;69599;52.622;9.230;2023-05-02T07:45:05;6.10;;;2.28;;
80297;SDS011;69599;52.622;9.230;2023-05-02T07:47:31;7.15;;;2.40;;
80297;SDS011;69599;52.622;9.230;2023-05-02T07:49:56;7.93;;;2.65;;
80297;SDS011;69599;52.622;9.230;2023-05-02T07:52:21;7.85;;;2.13;;
80297;SDS011;69599;52.622;9.230;2023-05-02T07:54:47;10.15;;;2.15;;
80297;SDS011;69599;52.622;9.230;2023-05-02T07:57:13;7.97;;;2.25;;
80297;SDS011;69599;52.622;9.230;2023-05-02T07:59:39;6.22;;;2.03;;
80297;SDS011;69599;52.622;9.230;2023-05-02T08:02:04;11.95;;;2.38;;
80297;SDS011;69599;52.622;9.230;2023-05-02T08:04:29;6.95;;;1.80;;
80297;SDS011;69599;52.622;9.230;2023-05-02T08:06:55;7.57;;;1.83;;
80297;SDS011;69599;52.622;9.230;2023-05-02T08:09:20;6.85;;;2.08;;
80297;SDS011;69599;52.622;9.230;2023-05-02T08:11:46;9.20;;;2.13;;
80297;SDS011;69599;52.622;9.230;2023-05-02T08:14:11;6.45;;;2.20;;
80297;SDS011;69599;52.622;9.230;2023-05-02T08:16:37;6.90;;;2.00;;
80297;SDS011;69599;52.622;9.230;2023-05-02T08:19:03;8.30;;;2.38;;
80297;SDS011;69599;52.622;9.230;2023-05-02T08:21:28;9.65;;;2.30;;
80297;SDS011;69599;52.622;9.230;2023-05-02T08:23:56;7.78;;;2.22;;
80297;SDS011;69599;52.622;9.230;2023-05-02T08:26:22;7.90;;;2.70;;
80297;SDS011;69599;52.622;9.230;2023-05-02T08:28:49;2.50;;;1.77;;
80297;SDS011;69599;52.622;9.230;2023-05-02T08:31:15;6.72;;;2.88;;
80297;SDS011;69599;52.622;9.230;2023-05-02T08:33:41;7.95;;;2.72;;
80297;SDS011;69599;52.622;9.230;2023-05-02T08:36:10;6.43;;;1.80;;
80297;SDS011;69599;52.622;9.230;2023-05-02T08:38:37;7.60;;;2.40;;
80297;SDS011;69599;52.622;9.230;2023-05-02T08:41:02;4.88;;;1.83;;
80297;SDS011;69599;52.622;9.230;2023-05-02T08:43:28;7.72;;;1.80;;
80297;SDS011;69599;52.622;9.230;2023-05-02T08:45:54;4.20;;;1.40;;
80297;SDS011;69599;52.622;9.230;2023-05-02T08:48:22;4.25;;;1.65;;
80297;SDS011;69599;52.622;9.230;2023-05-02T08:50:48;4.70;;;1.92;;
80297;SDS011;69599;52.622;9.230;2023-05-02T08:53:14;3.88;;;1.70;;
80297;SDS011;69599;52.622;9.230;2023-05-02T08:55:40;6.85;;;2.03;;
80297;SDS011;69599;52.622;9.230;2023-05-02T08:58:06;5.60;;;1.73;;
80297;SDS011;69599;52.622;9.230;2023-05-02T09:00:40;6.55;;;2.03;;
80297;SDS011;69599;52.622;9.230;2023-05-02T09:08:04;7.50;;;2.03;;
80297;SDS011;69599;52.622;9.230;2023-05-02T09:10:29;6.13;;;1.70;;
80297;SDS011;69599;52.622;9.230;2023-05-02T09:12:55;7.05;;;2.25;;
80297;SDS011;69599;52.622;9.230;2023-05-02T09:15:21;5.30;;;2.20;;
80297;SDS011;69599;52.622;9.230;2023-05-02T09:17:46;8.35;;;2.55;;
80297;SDS011;69599;52.622;9.230;2023-05-02T09:20:13;9.00;;;3.22;;
80297;SDS011;69599;52.622;9.230;2023-05-02T09:22:49;4.32;;;2.72;;
80297;SDS011;69599;52.622;9.230;2023-05-02T09:25:16;8.50;;;3.53;;
80297;SDS011;69599;52.622;9.230;2023-05-02T09:27:48;7.53;;;3.20;;
80297;SDS011;69599;52.622;9.230;2023-05-02T09:30:21;6.90;;;3.08;;
80297;SDS011;69599;52.622;9.230;2023-05-02T09:32:48;7.32;;;3.30;;
80297;SDS011;69599;52.622;9.230;2023-05-02T09:35:17;7.13;;;3.38;;
80297;SDS011;69599;52.622;9.230;2023-05-02T09:37:52;7.53;;;3.58;;
80297;SDS011;69599;52.622;9.230;2023-05-02T09:40:19;14.57;;;4.50;;
80297;SDS011;69599;52.622;9.230;2023-05-02T09:42:45;8.52;;;4.00;;
80297;SDS011;69599;52.622;9.230;2023-05-02T09:45:32;9.30;;;4.00;;
80297;SDS011;69599;52.622;9.230;2023-05-02T09:48:00;10.27;;;3.55;;
80297;SDS011;69599;52.622;9.230;2023-05-02T09:50:35;6.97;;;4.10;;
80297;SDS011;69599;52.622;9.230;2023-05-02T09:53:05;9.35;;;4.10;;
80297;SDS011;69599;52.622;9.230;2023-05-02T09:55:32;12.65;;;6.22;;
80297;SDS011;69599;52.622;9.230;2023-05-02T09:57:58;6.28;;;3.90;;
80297;SDS011;69599;52.622;9.230;2023-05-02T10:00:41;8.23;;;3.15;;
80297;SDS011;69599;52.622;9.230;2023-05-02T10:03:07;6.55;;;3.33;;
80297;SDS011;69599;52.622;9.230;2023-05-02T10:05:36;11.18;;;3.65;;
80297;SDS011;69599;52.622;9.230;2023-05-02T10:08:06;6.80;;;2.72;;
80297;SDS011;69599;52.622;9.230;2023-05-02T10:10:35;5.82;;;2.35;;
80297;SDS011;69599;52.622;9.230;2023-05-02T10:13:02;4.57;;;2.28;;
80297;SDS011;69599;52.622;9.230;2023-05-02T10:15:28;6.00;;;2.13;;
80297;SDS011;69599;52.622;9.230;2023-05-02T10:17:55;10.50;;;3.50;;
80297;SDS011;69599;52.622;9.230;2023-05-02T10:20:23;7.00;;;2.80;;
80297;SDS011;69599;52.622;9.230;2023-05-02T10:22:50;10.15;;;3.50;;
80297;SDS011;69599;52.622;9.230;2023-05-02T10:25:17;6.07;;;2.72;;
80297;SDS011;69599;52.622;9.230;2023-05-02T10:27:43;6.15;;;2.63;;
80297;SDS011;69599;52.622;9.230;2023-05-02T10:30:08;8.38;;;3.47;;
80297;SDS011;69599;52.622;9.230;2023-05-02T10:32:34;8.13;;;1.83;;
80297;SDS011;69599;52.622;9.230;2023-05-02T10:35:04;8.25;;;2.38;;
80297;SDS011;69599;52.622;9.230;2023-05-02T10:37:32;4.97;;;2.40;;
80297;SDS011;69599;52.622;9.230;2023-05-02T10:39:58;5.00;;;2.10;;
80297;SDS011;69599;52.622;9.230;2023-05-02T10:42:24;4.13;;;1.80;;
80297;SDS011;69599;52.622;9.230;2023-05-02T10:44:50;6.53;;;2.40;;
80297;SDS011;69599;52.622;9.230;2023-05-02T10:47:23;5.50;;;2.55;;
80297;SDS011;69599;52.622;9.230;2023-05-02T10:49:51;4.30;;;2.05;;
80297;SDS011;69599;52.622;9.230;2023-05-02T11:00:21;8.10;;;3.38;;
80297;SDS011;69599;52.622;9.230;2023-05-02T11:02:48;6.93;;;2.22;;
80297;SDS011;69599;52.622;9.230;2023-05-02T11:05:14;4.45;;;2.30;;
80297;SDS011;69599;52.622;9.230;2023-05-02T11:07:39;5.30;;;2.10;;
80297;SDS011;69599;52.622;9.230;2023-05-02T11:12:43;6.78;;;2.10;;
80297;SDS011;69599;52.622;9.230;2023-05-02T11:17:57;7.22;;;2.53;;
80297;SDS011;69599;52.622;9.230;2023-05-02T11:20:23;4.13;;;1.80;;
80297;SDS011;69599;52.622;9.230;2023-05-02T11:22:49;6.50;;;2.45;;
80297;SDS011;69599;52.622;9.230;2023-05-02T11:27:55;6.15;;;1.60;;
80297;SDS011;69599;52.622;9.230;2023-05-02T11:30:39;3.28;;;1.30;;
80297;SDS011;69599;52.622;9.230;2023-05-02T11:35:35;2.90;;;1.27;;
80297;SDS011;69599;52.622;9.230;2023-05-02T11:38:01;3.53;;;1.45;;
80297;SDS011;69599;52.622;9.230;2023-05-02T11:40:28;4.78;;;1.60;;
80297;SDS011;69599;52.622;9.230;2023-05-02T11:42:55;3.47;;;1.23;;
80297;SDS011;69599;52.622;9.230;2023-05-02T11:45:21;5.13;;;1.35;;
80297;SDS011;69599;52.622;9.230;2023-05-02T11:47:48;2.10;;;1.20;;
80297;SDS011;69599;52.622;9.230;2023-05-02T11:50:15;4.95;;;1.80;;
80297;SDS011;69599;52.622;9.230;2023-05-02T11:52:41;4.65;;;1.60;;
80297;SDS011;69599;52.622;9.230;2023-05-02T11:55:12;2.50;;;1.63;;
80297;SDS011;69599;52.622;9.230;2023-05-02T11:57:38;4.03;;;1.30;;
80297;SDS011;69599;52.622;9.230;2023-05-02T12:00:04;4.35;;;1.65;;
80297;SDS011;69599;52.622;9.230;2023-05-02T12:02:41;4.20;;;1.88;;
80297;SDS011;69599;52.622;9.230;2023-05-02T12:05:08;2.72;;;1.30;;
80297;SDS011;69599;52.622;9.230;2023-05-02T12:07:38;2.85;;;1.33;;
80297;SDS011;69599;52.622;9.230;2023-05-02T12:10:08;4.93;;;1.52;;
80297;SDS011;69599;52.622;9.230;2023-05-02T12:12:34;3.63;;;1.67;;
80297;SDS011;69599;52.622;9.230;2023-05-02T12:15:06;1.88;;;1.13;;
80297;SDS011;69599;52.622;9.230;2023-05-02T12:17:33;3.50;;;1.55;;
80297;SDS011;69599;52.622;9.230;2023-05-02T12:20:21;3.80;;;1.40;;
80297;SDS011;69599;52.622;9.230;2023-05-02T12:22:46;4.93;;;1.65;;
80297;SDS011;69599;52.622;9.230;2023-05-02T12:25:12;4.20;;;1.52;;
80297;SDS011;69599;52.622;9.230;2023-05-02T12:27:37;3.63;;;1.92;;
80297;SDS011;69599;52.622;9.230;2023-05-02T12:30:03;3.55;;;1.80;;
80297;SDS011;69599;52.622;9.230;2023-05-02T12:32:30;3.00;;;1.85;;
80297;SDS011;69599;52.622;9.230;2023-05-02T12:34:57;4.82;;;2.00;;
80297;SDS011;69599;52.622;9.230;2023-05-02T12:37:26;5.65;;;2.40;;
80297;SDS011;69599;52.622;9.230;2023-05-02T12:39:52;4.18;;;2.13;;
80297;SDS011;69599;52.622;9.230;2023-05-02T12:42:20;2.97;;;2.30;;
80297;SDS011;69599;52.622;9.230;2023-05-02T12:44:47;8.32;;;1.75;;
80297;SDS011;69599;52.622;9.230;2023-05-02T12:47:16;3.22;;;1.40;;
80297;SDS011;69599;52.622;9.230;2023-05-02T12:52:14;2.85;;;1.23;;
80297;SDS011;69599;52.622;9.230;2023-05-02T12:54:40;3.03;;;1.20;;
80297;SDS011;69599;52.622;9.230;2023-05-02T12:57:05;4.57;;;1.60;;
80297;SDS011;69599;52.622;9.230;2023-05-02T12:59:32;2.95;;;1.08;;
80297;SDS011;69599;52.622;9.230;2023-05-02T13:01:57;2.80;;;1.15;;
80297;SDS011;69599;52.622;9.230;2023-05-02T13:04:33;3.15;;;1.10;;
80297;SDS011;69599;52.622;9.230;2023-05-02T13:07:03;4.78;;;1.17;;
80297;SDS011;69599;52.622;9.230;2023-05-02T13:09:29;3.88;;;1.17;;
80297;SDS011;69599;52.622;9.230;2023-05-02T13:11:54;4.22;;;1.25;;
80297;SDS011;69599;52.622;9.230;2023-05-02T13:14:21;2.17;;;1.00;;
80297;SDS011;69599;52.622;9.230;2023-05-02T13:16:47;2.97;;;1.10;;
80297;SDS011;69599;52.622;9.230;2023-05-02T13:19:13;4.32;;;1.33;;
80297;SDS011;69599;52.622;9.230;2023-05-02T13:21:39;3.08;;;1.17;;
80297;SDS011;69599;52.622;9.230;2023-05-02T13:24:04;1.38;;;0.90;;
80297;SDS011;69599;52.622;9.230;2023-05-02T13:26:30;3.70;;;1.40;;
80297;SDS011;69599;52.622;9.230;2023-05-02T13:28:56;3.85;;;1.10;;
80297;SDS011;69599;52.622;9.230;2023-05-02T13:31:21;4.93;;;1.55;;
80297;SDS011;69599;52.622;9.230;2023-05-02T13:33:47;4.82;;;1.63;;
80297;SDS011;69599;52.622;9.230;2023-05-02T13:36:13;2.42;;;1.30;;
80297;SDS011;69599;52.622;9.230;2023-05-02T13:38:38;2.75;;;1.33;;
80297;SDS011;69599;52.622;9.230;2023-05-02T13:41:04;3.25;;;1.55;;
80297;SDS011;69599;52.622;9.230;2023-05-02T13:43:29;2.72;;;1.05;;
80297;SDS011;69599;52.622;9.230;2023-05-02T13:45:55;3.55;;;1.20;;
80297;SDS011;69599;52.622;9.230;2023-05-02T13:48:20;3.10;;;1.25;;
80297;SDS011;69599;52.622;9.230;2023-05-02T13:50:45;4.45;;;1.42;;
80297;SDS011;69599;52.622;9.230;2023-05-02T13:53:11;2.80;;;1.50;;
80297;SDS011;69599;52.622;9.230;2023-05-02T13:55:36;4.65;;;1.40;;
80297;SDS011;69599;52.622;9.230;2023-05-02T13:58:02;3.70;;;1.52;;
80297;SDS011;69599;52.622;9.230;2023-05-02T14:00:27;5.35;;;2.17;;
80297;SDS011;69599;52.622;9.230;2023-05-02T14:02:53;4.18;;;1.52;;
80297;SDS011;69599;52.622;9.230;2023-05-02T14:05:19;4.45;;;1.25;;
80297;SDS011;69599;52.622;9.230;2023-05-02T14:07:44;2.53;;;1.25;;
80297;SDS011;69599;52.622;9.230;2023-05-02T14:10:10;3.67;;;1.00;;
80297;SDS011;69599;52.622;9.230;2023-05-02T14:12:36;3.85;;;1.15;;
80297;SDS011;69599;52.622;9.230;2023-05-02T14:15:01;2.60;;;1.00;;
80297;SDS011;69599;52.622;9.230;2023-05-02T14:17:27;3.60;;;1.40;;
80297;SDS011;69599;52.622;9.230;2023-05-02T14:19:52;3.80;;;1.25;;
80297;SDS011;69599;52.622;9.230;2023-05-02T14:22:17;2.17;;;1.10;;
80297;SDS011;69599;52.622;9.230;2023-05-02T14:24:43;4.30;;;1.02;;
80297;SDS011;69599;52.622;9.230;2023-05-02T14:27:08;4.30;;;1.40;;
80297;SDS011;69599;52.622;9.230;2023-05-02T14:29:38;2.10;;;1.00;;
80297;SDS011;69599;52.622;9.230;2023-05-02T14:32:03;4.45;;;1.08;;
80297;SDS011;69599;52.622;9.230;2023-05-02T14:34:29;3.53;;;1.25;;
80297;SDS011;69599;52.622;9.230;2023-05-02T14:36:55;4.07;;;1.20;;
80297;SDS011;69599;52.622;9.230;2023-05-02T14:39:20;2.20;;;1.38;;
80297;SDS011;69599;52.622;9.230;2023-05-02T14:41:46;3.58;;;0.95;;
80297;SDS011;69599;52.622;9.230;2023-05-02T14:44:11;2.40;;;1.10;;
80297;SDS011;69599;52.622;9.230;2023-05-02T14:46:36;3.97;;;1.17;;
80297;SDS011;69599;52.622;9.230;2023-05-02T14:49:02;7.25;;;1.38;;
80297;SDS011;69599;52.622;9.230;2023-05-02T14:51:27;5.68;;;1.30;;
80297;SDS011;69599;52.622;9.230;2023-05-02T14:53:53;3.72;;;1.17;;
80297;SDS011;69599;52.622;9.230;2023-05-02T14:56:18;3.95;;;1.10;;
80297;SDS011;69599;52.622;9.230;2023-05-02T14:58:44;5.50;;;1.38;;
80297;SDS011;69599;52.622;9.230;2023-05-02T15:01:17;2.60;;;1.15;;
80297;SDS011;69599;52.622;9.230;2023-05-02T15:03:43;4.10;;;1.27;;
80297;SDS011;69599;52.622;9.230;2023-05-02T15:06:10;16.67;;;1.95;;
80297;SDS011;69599;52.622;9.230;2023-05-02T15:08:36;2.63;;;1.20;;
80297;SDS011;69599;52.622;9.230;2023-05-02T15:11:02;3.53;;;1.10;;
80297;SDS011;69599;52.622;9.230;2023-05-02T15:13:27;4.63;;;1.10;;
80297;SDS011;69599;52.622;9.230;2023-05-02T15:15:52;1.58;;;0.98;;
80297;SDS011;69599;52.622;9.230;2023-05-02T15:18:19;4.38;;;1.17;;
80297;SDS011;69599;52.622;9.230;2023-05-02T15:20:45;3.75;;;1.63;;